Time;durP1;ratioP1;P1;durP2;ratioP2;P2;SDS_P1;SDS_P2;PMS_P1;PMS_P2;Temp;Humidity;BMP_temperature;BMP_pressure;BME280_temperature;BME280_humidity;BME280_pressure;Samples;Min_cycle;Max_cycle;Signal;HPM_P1;HPM_P2
2024/04/13 00:00:49;;;;;;;6.60;3.58;;;;;;;14.47;100.00;102308.88;6823156;26;20043;-83
2024/04/13 00:03:52;;;;;;;4.93;3.67;;;;;;;14.42;100.00;102300.28;6800108;26;20099;-83
2024/04/13 00:06:53;;;;;;;7.07;4.20;;;;;;;14.38;100.00;102304.84;6784174;26;20002;-83
2024/04/13 00:09:59;;;;;;;7.25;4.28;;;;;;;14.32;100.00;102301.63;6823227;26;20249;-83
2024/04/13 00:12:59;;;;;;;5.82;3.58;;;;;;;14.26;100.00;102301.88;6788624;26;20067;-83
2024/04/13 00:16:02;;;;;;;7.88;4.00;;;;;;;14.21;100.00;102299.44;6813508;26;19998;-83
2024/04/13 00:19:03;;;;;;;7.13;4.22;;;;;;;14.13;100.00;102298.94;6824643;26;20062;-83
2024/04/13 00:22:06;;;;;;;5.65;3.42;;;;;;;14.08;100.00;102293.84;6824330;26;19990;-83
2024/04/13 00:25:10;;;;;;;7.03;4.60;;;;;;;14.05;100.00;102287.81;6824556;26;19994;-83
2024/04/13 00:28:13;;;;;;;6.80;4.05;;;;;;;14.02;100.00;102294.09;6822844;26;20300;-83
2024/04/13 00:31:13;;;;;;;5.93;3.95;;;;;;;14.01;100.00;102292.38;6821959;26;19998;-84
2024/04/13 00:34:16;;;;;;;5.88;3.78;;;;;;;13.99;100.00;102285.41;6821824;26;20062;-84
2024/04/13 00:37:19;;;;;;;7.03;4.80;;;;;;;13.96;100.00;102275.84;6821802;26;19992;-84
2024/04/13 00:40:22;;;;;;;7.70;5.07;;;;;;;13.94;100.00;102280.34;6781517;26;20006;-84
2024/04/13 00:43:25;;;;;;;9.43;5.05;;;;;;;13.93;100.00;102278.63;6776416;26;19994;-85
2024/04/13 00:46:31;;;;;;;7.43;4.70;;;;;;;13.93;100.00;102283.91;6776185;26;20044;-84
2024/04/13 00:49:36;;;;;;;9.18;5.30;;;;;;;13.89;100.00;102275.25;6775795;26;20053;-85
2024/04/13 00:52:41;;;;;;;6.63;4.50;;;;;;;13.93;100.00;102275.97;6776028;26;20010;-84
2024/04/13 00:55:44;;;;;;;7.97;4.60;;;;;;;13.95;100.00;102275.00;6775627;26;20036;-85
2024/04/13 00:58:48;;;;;;;9.80;4.72;;;;;;;14.00;100.00;102273.94;6776143;26;19994;-84
2024/04/13 01:01:48;;;;;;;8.18;5.20;;;;;;;14.00;100.00;102260.72;6775627;26;20406;-84
2024/04/13 01:04:52;;;;;;;9.93;5.53;;;;;;;14.01;100.00;102260.66;6775881;26;20052;-84
2024/04/13 01:07:54;;;;;;;10.25;5.03;;;;;;;13.99;100.00;102257.22;6775544;26;20259;-84
2024/04/13 01:11:00;;;;;;;9.60;4.93;;;;;;;13.99;100.00;102251.94;6775251;26;19991;-85
2024/04/13 01:14:01;;;;;;;9.73;5.20;;;;;;;13.94;100.00;102254.78;6775599;26;19999;-84
2024/04/13 01:17:05;;;;;;;7.38;4.75;;;;;;;13.94;100.00;102251.25;6774730;26;20565;-85
2024/04/13 01:20:08;;;;;;;8.95;5.15;;;;;;;13.89;100.00;102256.75;6775316;26;19995;-84
2024/04/13 01:23:11;;;;;;;11.55;5.03;;;;;;;13.86;100.00;102253.41;6775041;26;20003;-84
2024/04/13 01:26:16;;;;;;;10.57;5.97;;;;;;;13.84;100.00;102244.66;6775092;26;19991;-84
2024/04/13 01:29:19;;;;;;;9.93;5.07;;;;;;;13.82;100.00;102252.66;6775277;26;20279;-85
2024/04/13 01:32:20;;;;;;;8.60;4.97;;;;;;;13.81;100.00;102240.38;6774784;26;20058;-84
2024/04/13 01:35:23;;;;;;;10.27;5.15;;;;;;;13.86;100.00;102238.41;6775300;26;20259;-84
2024/04/13 01:38:23;;;;;;;10.52;5.07;;;;;;;13.88;100.00;102227.75;6774748;26;20056;-84
2024/04/13 01:41:29;;;;;;;10.50;5.65;;;;;;;13.85;100.00;102230.50;6774999;26;19999;-84
2024/04/13 01:44:32;;;;;;;10.80;5.63;;;;;;;13.86;100.00;102224.34;6774757;26;19999;-84
2024/04/13 01:47:32;;;;;;;11.10;5.80;;;;;;;13.90;100.00;102226.78;6774724;26;19991;-84
2024/04/13 01:50:35;;;;;;;11.27;5.43;;;;;;;13.89;100.00;102217.09;6775031;26;20063;-84
2024/04/13 01:53:36;;;;;;;9.57;5.07;;;;;;;13.94;100.00;102224.84;6774476;26;19991;-84
2024/04/13 01:56:42;;;;;;;12.10;5.35;;;;;;;14.03;100.00;102236.78;6774740;26;20086;-83
2024/04/13 01:59:45;;;;;;;11.38;6.22;;;;;;;14.08;100.00;102225.09;6774458;26;20366;-84
2024/04/13 02:02:46;;;;;;;9.35;5.32;;;;;;;14.19;100.00;102224.63;6774170;26;19995;-83
2024/04/13 02:05:49;;;;;;;9.38;4.65;;;;;;;14.22;100.00;102229.78;6774713;26;19995;-84
2024/04/13 02:08:49;;;;;;;9.77;5.00;;;;;;;14.20;100.00;102226.31;6774651;26;19994;-84
2024/04/13 02:11:55;;;;;;;8.25;4.93;;;;;;;14.20;100.00;102223.69;6774212;26;20059;-83
2024/04/13 02:14:55;;;;;;;12.73;5.13;;;;;;;14.24;100.00;102221.78;6774350;26;20342;-85
2024/04/13 02:17:58;;;;;;;7.03;4.45;;;;;;;14.25;100.00;102218.19;6773924;26;20053;-84
2024/04/13 02:20:59;;;;;;;9.93;4.97;;;;;;;14.25;100.00;102215.53;6774278;26;19994;-83
2024/04/13 02:24:02;;;;;;;6.65;3.95;;;;;;;14.21;100.00;102218.31;6798971;26;20021;-83
2024/04/13 02:27:06;;;;;;;7.22;4.25;;;;;;;14.17;100.00;102213.22;6819157;26;19994;-83
2024/04/13 02:30:09;;;;;;;9.98;5.15;;;;;;;14.18;100.00;102204.41;6822174;26;20058;-84
2024/04/13 02:33:13;;;;;;;14.55;5.53;;;;;;;14.22;100.00;102213.91;6787066;26;20067;-84
2024/04/13 02:36:13;;;;;;;16.83;6.70;;;;;;;14.30;100.00;102192.38;6778207;26;19991;-84
2024/04/13 02:39:18;;;;;;;13.05;6.40;;;;;;;14.36;100.00;102192.97;6778394;26;20436;-84
2024/04/13 02:42:21;;;;;;;15.80;7.03;;;;;;;14.39;100.00;102192.81;6778351;26;20040;-84
2024/04/13 02:45:24;;;;;;;12.60;6.70;;;;;;;14.46;100.00;102196.06;6782511;26;19995;-84
2024/04/13 02:48:24;;;;;;;13.63;7.68;;;;;;;14.48;100.00;102194.22;6781656;26;20055;-84
2024/04/13 02:51:27;;;;;;;14.30;7.40;;;;;;;14.51;100.00;102194.09;6781603;26;19995;-84
2024/04/13 02:54:27;;;;;;;14.32;7.93;;;;;;;14.52;100.00;102189.66;6781912;26;19990;-84
2024/04/13 02:57:33;;;;;;;13.73;6.38;;;;;;;14.49;100.00;102189.78;6779764;26;19999;-84
2024/04/13 03:00:33;;;;;;;13.05;6.10;;;;;;;14.47;100.00;102188.03;6778027;26;19999;-84
2024/04/13 03:03:37;;;;;;;11.63;5.65;;;;;;;14.41;100.00;102182.19;6777780;26;20060;-84
2024/04/13 03:06:41;;;;;;;12.45;5.63;;;;;;;14.31;100.00;102187.06;6777988;26;20005;-84
2024/04/13 03:09:41;;;;;;;9.82;5.65;;;;;;;14.25;100.00;102182.03;6777836;26;20370;-84
2024/04/13 03:12:47;;;;;;;10.07;5.68;;;;;;;14.17;100.00;102176.22;6777563;26;19990;-83
2024/04/13 03:15:57;;;;;;;12.27;7.03;;;;;;;14.15;100.00;102173.66;6777677;26;19995;-84
2024/04/13 03:19:00;;;;;;;12.95;6.25;;;;;;;14.10;100.00;102188.88;6777977;26;20365;-84
2024/04/13 03:22:02;;;;;;;13.57;7.63;;;;;;;14.10;100.00;102182.72;6777707;26;20106;-84
2024/04/13 03:25:06;;;;;;;17.38;7.97;;;;;;;14.05;100.00;102188.22;6777934;26;20003;-83
2024/04/13 03:28:11;;;;;;;10.93;6.22;;;;;;;14.08;100.00;102193.38;6777462;26;19991;-84
2024/04/13 03:31:14;;;;;;;17.70;6.75;;;;;;;14.05;100.00;102187.38;6777609;26;19995;-84
2024/04/13 03:34:15;;;;;;;12.82;6.90;;;;;;;14.04;100.00;102197.09;6777298;26;19995;-84
2024/04/13 03:37:18;;;;;;;16.10;8.02;;;;;;;14.01;100.00;102194.56;6777572;26;20005;-84
2024/04/13 03:40:21;;;;;;;12.88;6.82;;;;;;;14.08;100.00;102185.47;6777247;26;20051;-84
2024/04/13 03:43:28;;;;;;;13.23;6.70;;;;;;;14.10;100.00;102180.09;6777296;26;20247;-84
2024/04/13 03:46:28;;;;;;;11.30;6.75;;;;;;;14.08;100.00;102188.09;6777672;26;20050;-84
2024/04/13 03:49:31;;;;;;;15.73;7.85;;;;;;;14.13;100.00;102180.81;6805731;21;20002;-79
2024/04/13 03:52:32;;;;;;;16.00;7.32;;;;;;;14.22;100.00;102190.13;6820302;26;20062;-78
2024/04/13 03:55:35;;;;;;;15.80;7.88;;;;;;;14.21;100.00;102188.38;6821164;26;19990;-78
2024/04/13 03:58:38;;;;;;;12.70;7.30;;;;;;;14.25;100.00;102186.47;6810260;26;19995;-78
2024/04/13 04:01:41;;;;;;;13.63;7.55;;;;;;;14.21;100.00;102191.03;6775534;26;19991;-78
2024/04/13 04:04:44;;;;;;;19.63;8.23;;;;;;;14.24;100.00;102198.81;6775717;26;20001;-80
2024/04/13 04:07:44;;;;;;;22.13;8.35;;;;;;;14.29;100.00;102204.75;6775611;26;20358;-80
2024/04/13 04:10:48;;;;;;;14.77;8.00;;;;;;;14.28;100.00;102189.81;6775240;26;20082;-80
2024/04/13 04:13:53;;;;;;;16.08;8.52;;;;;;;14.33;100.00;102181.69;6779071;26;20060;-80
2024/04/13 04:16:55;;;;;;;18.15;8.10;;;;;;;14.36;100.00;102200.06;6820008;26;20058;-79
2024/04/13 04:19:57;;;;;;;12.98;7.13;;;;;;;14.33;100.00;102203.69;6820388;26;20296;-79
2024/04/13 04:22:58;;;;;;;17.67;9.48;;;;;;;14.30;100.00;102198.53;6820007;26;20043;-79
2024/04/13 04:26:01;;;;;;;17.63;7.82;;;;;;;14.33;100.00;102194.91;6820384;26;20002;-79
2024/04/13 04:29:05;;;;;;;11.27;7.50;;;;;;;14.27;100.00;102201.34;6820518;26;19994;-79
2024/04/13 04:32:08;;;;;;;19.02;7.97;;;;;;;14.19;100.00;102214.91;6819956;26;19994;-80
2024/04/13 04:35:09;;;;;;;14.73;7.75;;;;;;;14.21;100.00;102214.81;6820126;26;19994;-79
2024/04/13 04:38:12;;;;;;;12.73;7.22;;;;;;;14.22;100.00;102213.91;6820587;26;20019;-79
2024/04/13 04:41:14;;;;;;;13.35;7.60;;;;;;;14.17;100.00;102216.75;6820064;26;20430;-80
2024/04/13 04:44:20;;;;;;;13.52;7.45;;;;;;;14.21;100.00;102215.66;6820416;26;19998;-80
2024/04/13 04:47:21;;;;;;;10.82;6.97;;;;;;;14.14;100.00;102208.09;6820105;26;20247;-80
2024/04/13 04:50:24;;;;;;;10.90;6.85;;;;;;;14.10;100.00;102211.81;6820287;26;19990;-80
2024/04/13 04:53:28;;;;;;;14.85;7.55;;;;;;;14.04;100.00;102214.75;6818228;26;19994;-80
2024/04/13 04:56:30;;;;;;;15.70;6.95;;;;;;;14.03;100.00;102210.34;6819902;26;19998;-79
2024/04/13 04:59:36;;;;;;;11.13;7.45;;;;;;;14.06;100.00;102210.22;6820236;26;20004;-79
2024/04/13 05:02:37;;;;;;;13.77;6.93;;;;;;;14.07;100.00;102210.16;6819593;26;19998;-80
2024/04/13 05:05:40;;;;;;;14.00;7.38;;;;;;;14.05;100.00;102203.22;6819746;26;20005;-79
2024/04/13 05:08:45;;;;;;;13.25;6.63;;;;;;;14.03;100.00;102207.72;6819630;26;19990;-79
2024/04/13 05:11:48;;;;;;;17.90;7.35;;;;;;;14.01;100.00;102209.56;6819570;26;20014;-79
2024/04/13 05:14:51;;;;;;;14.38;5.97;;;;;;;14.10;100.00;102207.38;6819274;26;19998;-79
2024/04/13 05:17:55;;;;;;;10.50;5.85;;;;;;;14.15;100.00;102210.66;6819291;26;19998;-79
2024/04/13 05:20:55;;;;;;;13.82;6.75;;;;;;;14.12;100.00;102204.66;6819277;26;20024;-78
2024/04/13 05:23:58;;;;;;;11.45;6.18;;;;;;;14.19;100.00;102212.25;6819448;26;20026;-79
2024/04/13 05:26:59;;;;;;;9.70;5.85;;;;;;;14.20;100.00;102205.19;6819263;26;19990;-79
2024/04/13 05:30:05;;;;;;;12.88;6.38;;;;;;;14.24;100.00;102203.25;6819167;26;20002;-79
2024/04/13 05:33:06;;;;;;;13.10;5.07;;;;;;;14.31;100.00;102200.28;6819260;26;19994;-80
2024/04/13 05:36:10;;;;;;;10.30;5.63;;;;;;;14.39;100.00;102202.53;6819216;26;20001;-79
2024/04/13 05:39:11;;;;;;;14.75;5.20;;;;;;;14.39;100.00;102211.34;6819376;26;20002;-80
2024/04/13 05:42:14;;;;;;;10.45;5.47;;;;;;;14.50;100.00;102205.59;6818897;26;19994;-80
2024/04/13 05:45:17;;;;;;;8.50;5.10;;;;;;;14.53;100.00;102217.81;6819012;26;19990;-83
2024/04/13 05:48:21;;;;;;;7.43;4.90;;;;;;;14.60;100.00;102216.63;6818839;26;20316;-79
2024/04/13 05:51:21;;;;;;;11.57;4.85;;;;;;;14.69;100.00;102208.25;6818601;26;20254;-80
2024/04/13 05:54:24;;;;;;;11.25;4.90;;;;;;;14.90;100.00;102219.63;6818845;26;19994;-79
2024/04/13 05:57:30;;;;;;;6.97;4.20;;;;;;;14.92;100.00;102226.53;6818655;26;19994;-79
2024/04/13 06:00:33;;;;;;;11.85;4.88;;;;;;;15.00;100.00;102220.03;6818633;26;19994;-80
2024/04/13 06:03:38;;;;;;;10.35;4.88;;;;;;;14.90;100.00;102214.31;6818573;26;20005;-80
2024/04/13 06:06:40;;;;;;;6.60;4.03;;;;;;;14.95;100.00;102217.59;6823276;26;19986;-81
2024/04/13 06:09:43;;;;;;;7.38;4.20;;;;;;;15.00;100.00;102212.09;6823145;26;19998;-80
2024/04/13 06:12:44;;;;;;;9.85;5.28;;;;;;;14.97;100.00;102215.72;6823200;26;19990;-80
2024/04/13 06:15:49;;;;;;;8.70;4.40;;;;;;;15.01;100.00;102216.44;6823252;26;20407;-81
2024/04/13 06:18:52;;;;;;;6.93;3.88;;;;;;;15.02;100.00;102215.50;6823435;26;20418;-79
2024/04/13 06:21:53;;;;;;;7.88;3.88;;;;;;;15.08;100.00;102217.84;6822748;26;20058;-81
2024/04/13 06:24:56;;;;;;;8.52;4.38;;;;;;;15.11;100.00;102218.56;6823161;26;19998;-80
2024/04/13 06:27:57;;;;;;;7.50;3.53;;;;;;;15.08;100.00;102218.72;6822932;26;20073;-80
2024/04/13 06:31:02;;;;;;;7.32;4.32;;;;;;;15.13;100.00;102222.00;6822663;26;19994;-80
2024/04/13 06:34:03;;;;;;;9.13;3.67;;;;;;;15.16;100.00;102224.47;6823502;26;20047;-80
2024/04/13 06:37:06;;;;;;;7.13;3.10;;;;;;;15.30;100.00;102221.16;6822593;26;19994;-80
2024/04/13 06:40:10;;;;;;;6.30;3.28;;;;;;;15.30;100.00;102221.16;6822627;26;19994;-80
2024/04/13 06:43:11;;;;;;;5.10;3.53;;;;;;;15.26;100.00;102211.66;6822768;26;20262;-80
2024/04/13 06:46:16;;;;;;;8.45;4.07;;;;;;;15.33;100.00;102215.72;6822632;26;19995;-80
2024/04/13 06:49:17;;;;;;;9.48;4.07;;;;;;;15.35;100.00;102221.81;6822285;26;19994;-81
2024/04/13 06:52:20;;;;;;;6.28;3.75;;;;;;;15.45;100.00;102219.53;6822295;26;20004;-81
2024/04/13 06:55:21;;;;;;;8.70;3.85;;;;;;;15.54;100.00;102210.28;6822824;26;19998;-80
2024/04/13 06:58:24;;;;;;;8.45;3.80;;;;;;;15.60;100.00;102215.25;6822931;26;20039;-81
2024/04/13 07:01:27;;;;;;;4.78;3.13;;;;;;;15.68;100.00;102221.91;6822208;26;20026;-85
2024/04/13 07:04:30;;;;;;;5.47;3.20;;;;;;;15.76;100.00;102218.88;6822427;26;19998;-79
2024/04/13 07:07:33;;;;;;;7.93;3.08;;;;;;;15.73;100.00;102206.63;6822467;26;20310;-80
2024/04/13 07:10:36;;;;;;;9.23;4.07;;;;;;;15.95;100.00;102200.22;6822369;26;19994;-80
2024/04/13 07:13:39;;;;;;;10.85;4.20;;;;;;;15.92;100.00;102205.66;6821728;26;19994;-81
2024/04/13 07:16:44;;;;;;;5.85;3.50;;;;;;;15.90;100.00;102204.91;6821061;26;19998;-81
2024/04/13 07:19:47;;;;;;;8.10;2.70;;;;;;;15.90;100.00;102196.97;6822311;26;20101;-82
2024/04/13 07:22:48;;;;;;;8.80;3.38;;;;;;;15.96;100.00;102189.53;6821997;26;19994;-80
2024/04/13 07:25:59;;;;;;;8.25;3.55;;;;;;;15.98;100.00;102182.31;6799506;26;20084;-79
2024/04/13 07:29:00;;;;;;;5.68;2.90;;;;;;;16.01;100.00;102193.72;6799304;26;20077;-80
2024/04/13 07:32:06;;;;;;;6.28;3.45;;;;;;;16.01;100.00;102189.28;6801291;26;19998;-81
2024/04/13 07:35:06;;;;;;;6.72;2.95;;;;;;;16.07;100.00;102178.34;6813875;26;20047;-80
2024/04/13 07:38:09;;;;;;;7.60;3.10;;;;;;;16.06;100.00;102183.72;6807649;26;20026;-80
2024/04/13 07:41:10;;;;;;;4.53;3.20;;;;;;;16.16;100.00;102180.50;6821619;26;20038;-79
2024/04/13 07:44:13;;;;;;;5.53;2.60;;;;;;;16.13;100.00;102199.25;6821573;26;20010;-79
2024/04/13 07:47:16;;;;;;;6.95;3.20;;;;;;;16.10;100.00;102195.88;6815285;26;20017;-80
2024/04/13 07:50:20;;;;;;;6.22;3.58;;;;;;;16.16;100.00;102199.06;6798273;26;20013;-73
2024/04/13 07:53:20;;;;;;;6.80;2.83;;;;;;;16.35;100.00;102190.09;6800683;26;20400;-79
2024/04/13 07:56:23;;;;;;;8.85;3.47;;;;;;;16.45;100.00;102186.03;6798922;26;19998;-79
2024/04/13 07:59:24;;;;;;;5.28;2.92;;;;;;;16.55;100.00;102187.22;6821424;26;20006;-81
2024/04/13 08:02:29;;;;;;;5.13;2.80;;;;;;;16.65;100.00;102200.84;6821866;26;20259;-79
2024/04/13 08:05:30;;;;;;;6.10;3.00;;;;;;;16.76;100.00;102185.22;6821197;26;19990;-80
2024/04/13 08:08:33;;;;;;;8.98;2.88;;;;;;;16.71;100.00;102188.09;6821090;26;20006;-79
2024/04/13 08:11:33;;;;;;;7.22;3.60;;;;;;;16.87;100.00;102197.88;6820914;26;20263;-79
2024/04/13 08:14:36;;;;;;;8.45;3.72;;;;;;;16.83;100.00;102186.56;6820946;26;20065;-79
2024/04/13 08:17:39;;;;;;;6.13;3.35;;;;;;;16.80;100.00;102197.34;6820979;26;20054;-79
2024/04/13 08:20:43;;;;;;;7.85;3.15;;;;;;;16.83;100.00;102194.53;6820559;26;20362;-80
2024/04/13 08:23:46;;;;;;;8.32;3.05;;;;;;;16.77;100.00;102192.22;6821058;26;19990;-79
2024/04/13 08:26:49;;;;;;;11.52;2.90;;;;;;;16.77;100.00;102194.03;6820514;26;20002;-79
2024/04/13 08:29:50;;;;;;;5.95;2.90;;;;;;;16.93;100.00;102186.88;6821041;26;20029;-79
2024/04/13 08:32:55;;;;;;;6.90;3.90;;;;;;;16.94;100.00;102184.16;6820259;26;20063;-78
2024/04/13 08:36:03;;;;;;;7.25;2.72;;;;;;;16.93;100.00;102186.88;6820510;26;20050;-81
2024/04/13 08:39:09;;;;;;;6.07;3.38;;;;;;;16.98;100.00;102198.09;6819871;26;19998;-79
2024/04/13 08:42:11;;;;;;;8.15;3.47;;;;;;;17.10;100.00;102176.16;6815360;26;20026;-79
2024/04/13 08:45:14;;;;;;;7.95;3.53;;;;;;;17.28;100.00;102187.53;6787358;26;20097;-79
2024/04/13 08:48:18;;;;;;;6.57;3.78;;;;;;;17.24;100.00;102189.50;6804371;26;20449;-79
2024/04/13 08:51:23;;;;;;;6.45;2.97;;;;;;;17.28;100.00;102178.69;6797529;26;20003;-79
2024/04/13 08:54:23;;;;;;;10.73;3.25;;;;;;;17.33;100.00;102168.66;6806055;26;20002;-77
2024/04/13 08:57:29;;;;;;;6.60;3.83;;;;;;;17.48;100.00;102165.91;6814752;26;20084;-77
2024/04/13 09:00:31;;;;;;;11.32;3.53;;;;;;;17.56;100.00;102177.91;6819399;26;20010;-76
2024/04/13 09:03:36;;;;;;;6.03;3.30;;;;;;;17.54;100.00;102177.16;6817967;26;20006;-77
2024/04/13 09:06:39;;;;;;;12.50;3.85;;;;;;;17.55;100.00;102169.09;6807745;26;20017;-77
2024/04/13 09:09:42;;;;;;;9.10;3.67;;;;;;;17.67;100.00;102167.50;6819640;26;19994;-78
2024/04/13 09:12:43;;;;;;;9.20;4.78;;;;;;;17.82;100.00;102163.09;6803712;26;19998;-78
2024/04/13 09:15:46;;;;;;;7.85;3.40;;;;;;;17.88;100.00;102168.00;6817193;26;20012;-79
2024/04/13 09:18:49;;;;;;;6.35;3.08;;;;;;;18.09;100.00;102155.19;6817194;26;20392;-77
2024/04/13 09:21:53;;;;;;;10.07;3.65;;;;;;;18.10;100.00;102159.56;6819670;26;20009;-79
2024/04/13 09:24:53;;;;;;;9.55;3.53;;;;;;;18.10;100.00;102151.59;6819668;26;19990;-79
2024/04/13 09:28:01;;;;;;;5.35;2.95;;;;;;;18.22;100.00;102149.00;6819513;26;20058;-77
2024/04/13 09:31:03;;;;;;;7.80;3.75;;;;;;;18.20;100.00;102142.91;6819579;26;20010;-76
2024/04/13 09:34:09;;;;;;;6.07;3.38;;;;;;;18.30;100.00;102148.50;6819973;26;20002;-78
2024/04/13 09:37:10;;;;;;;9.13;3.33;;;;;;;18.23;100.00;102147.19;6819141;26;19990;-78
2024/04/13 09:40:13;;;;;;;6.68;3.10;;;;;;;18.29;100.00;102141.47;6822011;26;19998;-79
2024/04/13 09:43:20;;;;;;;6.63;2.65;;;;;;;18.34;100.00;102144.69;6823813;26;20001;-79
2024/04/13 09:46:23;;;;;;;8.75;2.65;;;;;;;18.46;100.00;102145.72;6824193;26;20005;-78
2024/04/13 09:49:26;;;;;;;6.50;2.83;;;;;;;18.54;100.00;102137.25;6823850;26;19991;-76
2024/04/13 09:52:29;;;;;;;5.70;2.47;;;;;;;18.58;97.75;102131.63;6843880;21;20074;-78
2024/04/13 09:55:32;;;;;;;7.53;2.50;;;;;;;18.69;95.52;102128.31;6823191;26;19990;-77
2024/04/13 09:58:35;;;;;;;4.63;2.08;;;;;;;18.72;97.13;102122.78;6819807;26;20006;-76
2024/04/13 10:01:36;;;;;;;5.30;2.78;;;;;;;18.84;92.77;102121.09;6777674;26;19995;-77
2024/04/13 10:04:42;;;;;;;13.75;3.05;;;;;;;18.99;93.32;102117.44;6777232;26;20003;-77
2024/04/13 10:07:43;;;;;;;6.38;1.88;;;;;;;18.94;91.77;102117.75;6788367;26;20427;-79
2024/04/13 10:10:51;;;;;;;9.40;2.13;;;;;;;18.90;91.54;102110.91;6708860;26;20020;-78
2024/04/13 10:13:52;;;;;;;4.35;1.88;;;;;;;19.01;88.53;102110.19;6655292;26;20005;-79
2024/04/13 10:17:01;;;;;;;8.20;2.00;;;;;;;19.07;84.11;102107.09;6656184;26;20028;-79
2024/04/13 10:20:06;;;;;;;3.75;1.88;;;;;;;19.11;85.55;102105.06;6661658;26;20016;-77
2024/04/13 10:23:11;;;;;;;5.85;1.80;;;;;;;19.15;83.52;102098.59;6685558;26;20001;-77
2024/04/13 10:26:12;;;;;;;5.22;2.03;;;;;;;19.33;82.01;102104.47;6687088;26;20177;-79
2024/04/13 10:29:25;;;;;;;4.22;1.70;;;;;;;19.37;83.77;102085.50;6687090;26;20000;-78
2024/04/13 10:32:25;;;;;;;2.70;1.40;;;;;;;19.41;82.63;102086.16;6685692;26;19997;-77
2024/04/13 10:35:31;;;;;;;2.35;1.67;;;;;;;19.55;78.86;102082.50;6688009;26;20091;-77
2024/04/13 10:38:36;;;;;;;7.13;1.60;;;;;;;19.61;79.26;102072.28;6688474;26;20057;-77
2024/04/13 10:41:38;;;;;;;3.83;1.50;;;;;;;19.75;76.67;102071.31;6688593;26;19992;-78
2024/04/13 10:44:41;;;;;;;4.38;1.60;;;;;;;19.81;76.08;102075.38;6688457;26;20029;-76
2024/04/13 10:47:45;;;;;;;2.60;1.20;;;;;;;19.89;74.73;102075.66;6688659;26;20000;-75
2024/04/13 10:50:48;;;;;;;4.88;1.50;;;;;;;19.71;78.58;102077.81;6687965;26;19992;-76
2024/04/13 10:53:52;;;;;;;2.30;1.38;;;;;;;19.84;81.25;102070.66;6688261;26;20264;-75
2024/04/13 10:56:55;;;;;;;2.47;1.20;;;;;;;19.80;83.11;102069.16;6677551;26;20001;-76
2024/04/13 10:59:58;;;;;;;4.15;1.58;;;;;;;19.91;86.44;102063.94;6659301;26;20013;-77
2024/04/13 11:02:59;;;;;;;6.20;2.20;;;;;;;20.12;90.71;102044.66;6669319;26;20001;-77
2024/04/13 11:06:08;;;;;;;4.40;2.00;;;;;;;20.14;90.30;102043.59;6677228;26;20060;-77
2024/04/13 11:09:08;;;;;;;4.67;1.77;;;;;;;20.25;91.09;102046.31;6673460;26;20253;-75
2024/04/13 11:12:14;;;;;;;8.43;2.60;;;;;;;20.29;89.01;102060.28;6676484;26;20012;-77
2024/04/13 11:15:17;;;;;;;4.25;1.75;;;;;;;20.48;89.26;102049.13;6683588;26;20009;-74
2024/04/13 11:18:21;;;;;;;6.28;2.13;;;;;;;20.37;88.55;102041.91;6671787;26;19997;-76
2024/04/13 11:21:28;;;;;;;4.45;1.75;;;;;;;20.56;89.41;102035.22;6679392;26;20392;-77
2024/04/13 11:24:31;;;;;;;6.05;1.65;;;;;;;20.55;88.40;102026.34;6643827;26;19997;-75
2024/04/13 11:27:32;;;;;;;5.88;1.75;;;;;;;20.55;88.30;102033.50;6652369;26;20061;-75
2024/04/13 11:30:41;;;;;;;3.85;2.05;;;;;;;20.71;88.26;102026.03;6677624;26;20004;-76
2024/04/13 11:33:41;;;;;;;3.72;1.70;;;;;;;20.97;88.83;102013.34;6687183;26;20015;-75
2024/04/13 11:36:47;;;;;;;2.25;1.73;;;;;;;21.04;90.47;102022.63;6686992;26;20016;-76
2024/04/13 11:39:47;;;;;;;3.08;1.45;;;;;;;21.21;89.04;102003.44;6673037;26;20425;-77
2024/04/13 11:42:51;;;;;;;1.85;1.63;;;;;;;21.12;87.17;102016.66;6680454;26;19997;-75
2024/04/13 11:45:51;;;;;;;5.57;1.85;;;;;;;20.94;87.74;102010.94;6664797;26;20004;-74
2024/04/13 11:48:54;;;;;;;3.28;1.45;;;;;;;20.95;89.03;101997.44;6668618;26;20066;-74
2024/04/13 11:51:58;;;;;;;4.30;1.88;;;;;;;21.00;86.83;102005.97;6672083;26;20015;-73
2024/04/13 11:55:01;;;;;;;5.40;2.00;;;;;;;21.17;85.25;102003.81;6671550;26;20012;-75
2024/04/13 11:58:01;;;;;;;4.22;2.45;;;;;;;21.07;85.33;101992.09;6672610;26;20005;-74
2024/04/13 12:01:05;;;;;;;10.63;2.35;;;;;;;21.18;86.90;102001.00;6677190;26;20055;-73
2024/04/13 12:04:05;;;;;;;3.33;2.45;;;;;;;21.16;86.06;102002.09;6686905;26;20044;-74
2024/04/13 12:07:12;;;;;;;4.85;2.20;;;;;;;21.17;86.28;101993.97;6686841;26;20057;-74
2024/04/13 12:10:12;;;;;;;3.17;2.05;;;;;;;20.96;89.11;101992.94;6662166;26;20004;-75
2024/04/13 12:13:15;;;;;;;5.55;2.38;;;;;;;20.92;88.93;101986.13;6679956;26;20005;-75
2024/04/13 12:16:16;;;;;;;6.53;2.40;;;;;;;20.81;91.41;101978.97;6676767;26;20073;-74
2024/04/13 12:19:19;;;;;;;5.50;2.55;;;;;;;20.79;93.59;101972.88;6686718;26;20000;-74
2024/04/13 12:22:22;;;;;;;5.20;2.20;;;;;;;20.85;91.44;101969.75;6686496;26;19996;-75
2024/04/13 12:25:25;;;;;;;5.78;2.63;;;;;;;21.03;92.98;101962.13;6685248;26;20001;-74
2024/04/13 12:28:25;;;;;;;6.85;2.85;;;;;;;21.07;89.85;101957.34;6684714;26;20049;-74
2024/04/13 12:31:28;;;;;;;3.75;2.50;;;;;;;21.23;89.48;101950.69;6660915;26;20000;-75
2024/04/13 12:34:31;;;;;;;7.18;2.40;;;;;;;21.40;89.78;101959.25;6679996;26;20437;-75
2024/04/13 12:37:35;;;;;;;4.18;2.78;;;;;;;21.33;86.98;101960.69;6686092;26;20444;-76
2024/04/13 12:40:38;;;;;;;4.97;3.10;;;;;;;21.52;86.68;101958.22;6686106;26;20442;-76
2024/04/13 12:43:38;;;;;;;5.43;3.17;;;;;;;21.64;86.55;101956.41;6686168;26;20076;-75
2024/04/13 12:46:42;;;;;;;4.47;2.80;;;;;;;21.73;88.24;101947.63;6685989;26;20000;-75
2024/04/13 12:49:42;;;;;;;6.60;3.83;;;;;;;21.85;86.51;101945.78;6685910;26;20015;-75
2024/04/13 12:52:48;;;;;;;4.32;2.88;;;;;;;22.28;86.24;101938.59;6685779;26;20000;-75
2024/04/13 12:55:49;;;;;;;5.75;3.10;;;;;;;22.50;79.80;101940.31;6686461;26;19992;-75
2024/04/13 12:58:52;;;;;;;7.15;3.65;;;;;;;22.37;80.14;101931.59;6686151;26;20000;-75
2024/04/13 13:01:53;;;;;;;5.03;3.00;;;;;;;22.42;81.56;101907.09;6684258;26;20000;-76
2024/04/13 13:04:56;;;;;;;8.07;3.70;;;;;;;22.67;78.99;101916.59;6685443;26;20070;-76
2024/04/13 13:08:01;;;;;;;5.97;3.38;;;;;;;22.83;79.90;101900.03;6685979;26;20057;-76
2024/04/13 13:11:03;;;;;;;6.65;3.67;;;;;;;22.93;74.44;101890.22;6681606;26;20034;-77
2024/04/13 13:14:05;;;;;;;8.45;3.03;;;;;;;22.92;75.25;101897.41;6684356;26;20036;-76
2024/04/13 13:17:06;;;;;;;5.88;2.95;;;;;;;22.57;74.86;101879.00;6686069;26;20057;-76
2024/04/13 13:20:10;;;;;;;4.20;3.38;;;;;;;22.54;76.07;101872.09;6685463;26;19996;-74
2024/04/13 13:23:13;;;;;;;6.30;3.03;;;;;;;23.01;74.00;101860.91;6685009;26;20000;-76
2024/04/13 13:26:16;;;;;;;6.43;3.40;;;;;;;22.93;74.17;101858.03;6677955;26;19996;-75
2024/04/13 13:29:16;;;;;;;5.65;2.58;;;;;;;22.98;74.82;101856.69;6678893;26;20000;-78
2024/04/13 13:32:20;;;;;;;4.38;2.88;;;;;;;23.28;74.74;101844.19;6685082;26;20004;-75
2024/04/13 13:35:20;;;;;;;7.20;2.53;;;;;;;23.41;70.87;101838.56;6675325;26;20001;-75
2024/04/13 13:38:26;;;;;;;4.90;2.92;;;;;;;23.56;67.90;101837.16;6684947;26;20005;-76
2024/04/13 13:41:30;;;;;;;7.85;2.70;;;;;;;23.71;68.94;101834.94;6691779;26;20008;-74
2024/04/13 13:44:34;;;;;;;2.90;2.15;;;;;;;23.66;69.51;101830.00;6684573;26;20024;-76
2024/04/13 13:47:34;;;;;;;3.28;1.90;;;;;;;23.78;68.42;101823.50;6684904;26;20003;-75
2024/04/13 13:50:37;;;;;;;4.78;2.10;;;;;;;23.76;67.72;101819.28;6684944;26;20000;-75
2024/04/13 13:53:40;;;;;;;4.57;2.47;;;;;;;23.88;68.96;101814.59;6684536;26;20264;-76
2024/04/13 13:56:43;;;;;;;7.93;2.13;;;;;;;23.99;66.64;101801.88;6698087;26;20070;-75
2024/04/13 13:59:44;;;;;;;4.68;2.42;;;;;;;24.10;65.53;101794.66;6729078;26;20000;-75